sensor_id;sensor_type;location;lat;lon;timestamp;pressure;altitude;pressure_sealevel;temperature;humidity
11172;BME280;5642;50.830;12.082;2022-08-23T00:01:59;99497.31;;;18.48;37.19
11172;BME280;5642;50.830;12.082;2022-08-23T00:04:32;99491.81;;;18.37;37.23
11172;BME280;5642;50.830;12.082;2022-08-23T00:06:59;99503.09;;;18.40;37.30
11172;BME280;5642;50.830;12.082;2022-08-23T00:09:26;99497.03;;;18.38;37.35
11172;BME280;5642;50.830;12.082;2022-08-23T00:12:13;99501.66;;;18.35;37.37
11172;BME280;5642;50.830;12.082;2022-08-23T00:14:49;99496.66;;;18.30;37.48
11172;BME280;5642;50.830;12.082;2022-08-23T00:17:16;99496.84;;;18.27;37.37
11172;BME280;5642;50.830;12.082;2022-08-23T00:19:43;99491.53;;;18.27;37.45
11172;BME280;5642;50.830;12.082;2022-08-23T00:22:09;99445.03;;;17.93;37.57
11172;BME280;5642;50.830;12.082;2022-08-23T00:24:37;99492.78;;;18.22;37.55
11172;BME280;5642;50.830;12.082;2022-08-23T00:27:08;99435.28;;;17.80;37.61
11172;BME280;5642;50.830;12.082;2022-08-23T00:29:47;99483.09;;;18.07;37.66
11172;BME280;5642;50.830;12.082;2022-08-23T00:32:26;99503.06;;;18.12;37.68
11172;BME280;5642;50.830;12.082;2022-08-23T00:34:54;99505.06;;;18.09;37.68
11172;BME280;5642;50.830;12.082;2022-08-23T00:37:21;99506.09;;;18.06;37.84
11172;BME280;5642;50.830;12.082;2022-08-23T00:39:47;99500.88;;;18.05;37.83
11172;BME280;5642;50.830;12.082;2022-08-23T00:45:23;99492.56;;;17.96;37.86
11172;BME280;5642;50.830;12.082;2022-08-23T00:48:11;99493.13;;;17.87;37.98
11172;BME280;5642;50.830;12.082;2022-08-23T00:50:44;99500.13;;;17.88;37.90
11172;BME280;5642;50.830;12.082;2022-08-23T00:53:18;99503.72;;;17.87;37.93
11172;BME280;5642;50.830;12.082;2022-08-23T01:57:04;99532.41;;;17.04;38.98
11172;BME280;5642;50.830;12.082;2022-08-23T01:59:30;99534.78;;;17.08;39.12
11172;BME280;5642;50.830;12.082;2022-08-23T02:01:58;99513.25;;;16.99;39.11
11172;BME280;5642;50.830;12.082;2022-08-23T02:04:25;99545.09;;;17.13;39.03
11172;BME280;5642;50.830;12.082;2022-08-23T02:06:52;99513.38;;;16.97;39.14
11172;BME280;5642;50.830;12.082;2022-08-23T02:09:18;99512.94;;;17.05;39.06
11172;BME280;5642;50.830;12.082;2022-08-23T02:11:45;99525.63;;;17.14;39.16
11172;BME280;5642;50.830;12.082;2022-08-23T02:14:16;99526.69;;;17.11;39.04
11172;BME280;5642;50.830;12.082;2022-08-23T02:16:49;99535.28;;;17.15;39.18
11172;BME280;5642;50.830;12.082;2022-08-23T02:19:16;99533.91;;;17.08;39.25
11172;BME280;5642;50.830;12.082;2022-08-23T02:21:43;99542.06;;;17.05;39.19
11172;BME280;5642;50.830;12.082;2022-08-23T02:24:11;99533.50;;;17.00;39.32
11172;BME280;5642;50.830;12.082;2022-08-23T02:26:41;99538.03;;;16.98;39.52
11172;BME280;5642;50.830;12.082;2022-08-23T02:29:07;99510.13;;;16.76;39.60
11172;BME280;5642;50.830;12.082;2022-08-23T02:31:34;99523.09;;;16.81;39.44
11172;BME280;5642;50.830;12.082;2022-08-23T02:34:00;99527.25;;;16.85;39.48
11172;BME280;5642;50.830;12.082;2022-08-23T02:36:27;99529.75;;;16.88;39.36
11172;BME280;5642;50.830;12.082;2022-08-23T02:38:54;99531.03;;;16.81;39.76
11172;BME280;5642;50.830;12.082;2022-08-23T02:41:21;99544.16;;;16.82;39.61
11172;BME280;5642;50.830;12.082;2022-08-23T02:43:51;99545.25;;;16.78;39.57
11172;BME280;5642;50.830;12.082;2022-08-23T02:46:18;99552.34;;;16.78;39.65
11172;BME280;5642;50.830;12.082;2022-08-23T02:48:46;99545.44;;;16.75;39.65
11172;BME280;5642;50.830;12.082;2022-08-23T02:51:12;99528.28;;;16.67;39.82
11172;BME280;5642;50.830;12.082;2022-08-23T02:53:38;99542.81;;;16.75;39.70
11172;BME280;5642;50.830;12.082;2022-08-23T02:56:05;99538.53;;;16.73;39.65
11172;BME280;5642;50.830;12.082;2022-08-23T02:58:31;99537.84;;;16.69;39.71
11172;BME280;5642;50.830;12.082;2022-08-23T03:00:57;99548.31;;;16.71;39.81
11172;BME280;5642;50.830;12.082;2022-08-23T03:03:23;99526.09;;;16.58;39.69
11172;BME280;5642;50.830;12.082;2022-08-23T03:05:49;99541.50;;;16.67;39.82
11172;BME280;5642;50.830;12.082;2022-08-23T03:08:16;99538.06;;;16.65;39.85
11172;BME280;5642;50.830;12.082;2022-08-23T03:10:44;99546.72;;;16.68;39.94
11172;BME280;5642;50.830;12.082;2022-08-23T03:13:10;99546.72;;;16.68;39.86
11172;BME280;5642;50.830;12.082;2022-08-23T03:15:38;99526.00;;;16.59;39.98
11172;BME280;5642;50.830;12.082;2022-08-23T03:18:04;99521.66;;;16.58;39.96
11172;BME280;5642;50.830;12.082;2022-08-23T03:20:30;99534.56;;;16.64;39.91
11172;BME280;5642;50.830;12.082;2022-08-23T03:22:56;99540.66;;;16.66;39.83
11172;BME280;5642;50.830;12.082;2022-08-23T03:25:22;99534.88;;;16.58;39.90
11172;BME280;5642;50.830;12.082;2022-08-23T03:27:48;99548.91;;;16.60;40.05
11172;BME280;5642;50.830;12.082;2022-08-23T03:30:15;99552.47;;;16.59;40.08
11172;BME280;5642;50.830;12.082;2022-08-23T03:32:41;99532.72;;;16.49;40.08
11172;BME280;5642;50.830;12.082;2022-08-23T03:35:07;99536.22;;;16.50;40.27
11172;BME280;5642;50.830;12.082;2022-08-23T03:37:34;99544.06;;;16.51;40.25
11172;BME280;5642;50.830;12.082;2022-08-23T03:40:00;99552.00;;;16.51;40.29
11172;BME280;5642;50.830;12.082;2022-08-23T03:42:26;99542.78;;;16.42;40.37
11172;BME280;5642;50.830;12.082;2022-08-23T03:44:53;99553.88;;;16.49;40.25
11172;BME280;5642;50.830;12.082;2022-08-23T03:47:19;99536.28;;;16.32;40.39
11172;BME280;5642;50.830;12.082;2022-08-23T03:49:45;99538.94;;;16.32;40.36
11172;BME280;5642;50.830;12.082;2022-08-23T03:52:11;99558.09;;;16.36;40.60
11172;BME280;5642;50.830;12.082;2022-08-23T03:54:37;99547.00;;;16.29;40.47
11172;BME280;5642;50.830;12.082;2022-08-23T04:58:53;99593.50;;;16.33;41.61
11172;BME280;5642;50.830;12.082;2022-08-23T05:01:20;99587.38;;;16.49;41.81
11172;BME280;5642;50.830;12.082;2022-08-23T05:03:46;99593.63;;;16.65;42.47
11172;BME280;5642;50.830;12.082;2022-08-23T05:06:13;99573.69;;;16.75;43.07
11172;BME280;5642;50.830;12.082;2022-08-23T05:08:39;99583.63;;;17.03;43.84
11172;BME280;5642;50.830;12.082;2022-08-23T05:11:07;99590.03;;;17.30;44.27
11172;BME280;5642;50.830;12.082;2022-08-23T05:13:33;99596.22;;;17.60;44.71
11172;BME280;5642;50.830;12.082;2022-08-23T05:15:59;99589.00;;;17.94;44.84
11172;BME280;5642;50.830;12.082;2022-08-23T05:18:26;99585.41;;;18.25;44.88
11172;BME280;5642;50.830;12.082;2022-08-23T05:20:52;99589.03;;;18.52;45.31
11172;BME280;5642;50.830;12.082;2022-08-23T05:23:19;99594.47;;;18.79;45.42
11172;BME280;5642;50.830;12.082;2022-08-23T05:25:45;99593.56;;;19.07;45.58
11172;BME280;5642;50.830;12.082;2022-08-23T05:28:16;99595.13;;;19.38;45.23
11172;BME280;5642;50.830;12.082;2022-08-23T05:30:43;99593.38;;;19.65;45.01
11172;BME280;5642;50.830;12.082;2022-08-23T05:33:11;99586.72;;;19.85;44.46
11172;BME280;5642;50.830;12.082;2022-08-23T05:35:37;99601.38;;;20.17;44.31
11172;BME280;5642;50.830;12.082;2022-08-23T05:38:04;99601.09;;;20.47;44.64
11172;BME280;5642;50.830;12.082;2022-08-23T05:40:34;99599.91;;;20.89;45.27
11172;BME280;5642;50.830;12.082;2022-08-23T05:43:01;99611.03;;;21.45;45.96
11172;BME280;5642;50.830;12.082;2022-08-23T05:45:27;99609.72;;;21.98;46.11
11172;BME280;5642;50.830;12.082;2022-08-23T05:47:53;99605.66;;;22.62;46.15
11172;BME280;5642;50.830;12.082;2022-08-23T05:50:19;99609.56;;;23.25;45.96
11172;BME280;5642;50.830;12.082;2022-08-23T05:52:49;99601.72;;;23.99;45.78
11172;BME280;5642;50.830;12.082;2022-08-23T05:55:15;99611.94;;;24.67;45.11
11172;BME280;5642;50.830;12.082;2022-08-23T07:57:27;99628.19;;;37.80;31.75
11172;BME280;5642;50.830;12.082;2022-08-23T07:59:54;99625.50;;;37.67;31.80
11172;BME280;5642;50.830;12.082;2022-08-23T08:02:33;99617.03;;;37.30;31.12
11172;BME280;5642;50.830;12.082;2022-08-23T08:05:01;99631.78;;;37.16;31.19
11172;BME280;5642;50.830;12.082;2022-08-23T08:07:28;99634.34;;;36.84;31.28
11172;BME280;5642;50.830;12.082;2022-08-23T08:09:54;99634.34;;;36.45;31.22
11172;BME280;5642;50.830;12.082;2022-08-23T08:12:20;99640.16;;;36.16;31.43
11172;BME280;5642;50.830;12.082;2022-08-23T08:14:46;99634.25;;;35.92;31.42
11172;BME280;5642;50.830;12.082;2022-08-23T08:17:13;99637.72;;;35.66;31.36
11172;BME280;5642;50.830;12.082;2022-08-23T08:19:39;99638.81;;;35.31;31.33
11172;BME280;5642;50.830;12.082;2022-08-23T08:22:08;99636.47;;;34.93;31.52
11172;BME280;5642;50.830;12.082;2022-08-23T08:24:34;99630.03;;;34.45;31.43
11172;BME280;5642;50.830;12.082;2022-08-23T08:27:00;99642.41;;;34.12;31.37
11172;BME280;5642;50.830;12.082;2022-08-23T08:29:27;99643.88;;;33.72;31.45
11172;BME280;5642;50.830;12.082;2022-08-23T08:31:53;99652.53;;;33.31;31.90
11172;BME280;5642;50.830;12.082;2022-08-23T08:34:19;99646.41;;;32.85;32.15
11172;BME280;5642;50.830;12.082;2022-08-23T08:36:49;99645.63;;;32.39;31.96
11172;BME280;5642;50.830;12.082;2022-08-23T08:39:19;99639.63;;;31.98;31.99
11172;BME280;5642;50.830;12.082;2022-08-23T08:47:47;99636.38;;;30.69;32.34
11172;BME280;5642;50.830;12.082;2022-08-23T08:50:25;99648.06;;;30.54;32.84
11172;BME280;5642;50.830;12.082;2022-08-23T08:53:06;99648.19;;;30.36;32.79
11172;BME280;5642;50.830;12.082;2022-08-23T08:55:41;99659.19;;;30.26;32.76
11172;BME280;5642;50.830;12.082;2022-08-23T08:58:21;99656.97;;;30.06;32.86
11172;BME280;5642;50.830;12.082;2022-08-23T09:00:49;99663.16;;;29.90;32.98
11172;BME280;5642;50.830;12.082;2022-08-23T09:03:18;99656.75;;;29.83;32.64
11172;BME280;5642;50.830;12.082;2022-08-23T09:05:58;99665.00;;;29.81;33.10
11172;BME280;5642;50.830;12.082;2022-08-23T09:11:43;99663.66;;;29.85;32.58
11172;BME280;5642;50.830;12.082;2022-08-23T09:17:28;99662.03;;;30.01;32.48
11172;BME280;5642;50.830;12.082;2022-08-23T09:19:58;99663.38;;;30.13;32.67
11172;BME280;5642;50.830;12.082;2022-08-23T09:22:32;99649.03;;;30.20;33.05
11172;BME280;5642;50.830;12.082;2022-08-23T09:25:00;99650.59;;;30.47;33.08
11172;BME280;5642;50.830;12.082;2022-08-23T09:27:26;99650.09;;;30.76;33.16
11172;BME280;5642;50.830;12.082;2022-08-23T09:29:55;99635.81;;;30.98;32.84
11172;BME280;5642;50.830;12.082;2022-08-23T09:32:29;99638.34;;;31.16;32.75
11172;BME280;5642;50.830;12.082;2022-08-23T09:35:25;99646.69;;;31.45;32.82
11172;BME280;5642;50.830;12.082;2022-08-23T09:37:58;99647.13;;;31.57;32.63
11172;BME280;5642;50.830;12.082;2022-08-23T09:40:38;99656.25;;;31.56;32.73
11172;BME280;5642;50.830;12.082;2022-08-23T09:43:15;99648.13;;;31.56;32.59
11172;BME280;5642;50.830;12.082;2022-08-23T09:51:28;99648.72;;;32.05;32.43
11172;BME280;5642;50.830;12.082;2022-08-23T09:56:37;99640.91;;;32.10;32.53
11172;BME280;5642;50.830;12.082;2022-08-23T13:00:50;99594.16;;;30.04;28.40
11172;BME280;5642;50.830;12.082;2022-08-23T13:03:24;99601.75;;;30.00;28.74
11172;BME280;5642;50.830;12.082;2022-08-23T13:05:56;99593.31;;;29.95;28.77
11172;BME280;5642;50.830;12.082;2022-08-23T13:08:30;99581.50;;;29.96;28.54
11172;BME280;5642;50.830;12.082;2022-08-23T13:10:59;99592.75;;;29.91;28.67
11172;BME280;5642;50.830;12.082;2022-08-23T13:13:26;99593.28;;;29.87;28.63
11172;BME280;5642;50.830;12.082;2022-08-23T13:15:55;99607.75;;;29.78;28.55
11172;BME280;5642;50.830;12.082;2022-08-23T13:18:32;99598.97;;;29.68;28.35
11172;BME280;5642;50.830;12.082;2022-08-23T13:23:41;99590.72;;;29.61;28.69
11172;BME280;5642;50.830;12.082;2022-08-23T13:29:18;99590.72;;;29.69;28.55
11172;BME280;5642;50.830;12.082;2022-08-23T13:37:22;99585.06;;;29.96;28.70
11172;BME280;5642;50.830;12.082;2022-08-23T13:40:07;99575.91;;;30.14;28.80
11172;BME280;5642;50.830;12.082;2022-08-23T13:42:40;99579.78;;;30.27;28.68
11172;BME280;5642;50.830;12.082;2022-08-23T13:45:28;99579.78;;;30.44;28.75
11172;BME280;5642;50.830;12.082;2022-08-23T13:47:59;99583.38;;;30.52;28.44
11172;BME280;5642;50.830;12.082;2022-08-23T13:50:29;99581.16;;;30.56;28.57
11172;BME280;5642;50.830;12.082;2022-08-23T13:52:57;99577.78;;;30.62;28.11
11172;BME280;5642;50.830;12.082;2022-08-23T13:55:24;99547.53;;;30.42;28.63
11172;BME280;5642;50.830;12.082;2022-08-23T13:57:52;99570.16;;;30.57;28.51
11172;BME280;5642;50.830;12.082;2022-08-23T14:00:18;99587.75;;;30.61;28.63
11172;BME280;5642;50.830;12.082;2022-08-23T14:02:45;99574.56;;;30.58;28.49
11172;BME280;5642;50.830;12.082;2022-08-23T14:05:18;99579.63;;;30.61;28.19
11172;BME280;5642;50.830;12.082;2022-08-23T14:07:46;99587.91;;;30.60;28.60
11172;BME280;5642;50.830;12.082;2022-08-23T14:10:14;99573.72;;;30.50;28.37
11172;BME280;5642;50.830;12.082;2022-08-23T14:12:42;99578.09;;;30.43;28.20
11172;BME280;5642;50.830;12.082;2022-08-23T14:15:11;99576.94;;;30.37;28.54
11172;BME280;5642;50.830;12.082;2022-08-23T14:17:41;99561.41;;;30.23;28.69
11172;BME280;5642;50.830;12.082;2022-08-23T14:20:08;99574.38;;;30.35;28.83
11172;BME280;5642;50.830;12.082;2022-08-23T14:22:36;99565.78;;;30.32;28.77
11172;BME280;5642;50.830;12.082;2022-08-23T14:25:03;99576.09;;;30.36;28.73
11172;BME280;5642;50.830;12.082;2022-08-23T14:27:31;99575.91;;;30.38;28.66
11172;BME280;5642;50.830;12.082;2022-08-23T14:29:58;99568.81;;;30.37;28.73
11172;BME280;5642;50.830;12.082;2022-08-23T14:32:24;99558.88;;;30.29;28.45
11172;BME280;5642;50.830;12.082;2022-08-23T14:34:50;99565.28;;;30.28;28.90
11172;BME280;5642;50.830;12.082;2022-08-23T14:37:18;99563.63;;;30.19;28.70
11172;BME280;5642;50.830;12.082;2022-08-23T14:39:44;99564.78;;;30.09;28.82
11172;BME280;5642;50.830;12.082;2022-08-23T14:42:11;99564.63;;;29.94;28.67
11172;BME280;5642;50.830;12.082;2022-08-23T14:44:38;99583.13;;;29.81;28.52
11172;BME280;5642;50.830;12.082;2022-08-23T14:47:05;99571.97;;;29.59;28.71
11172;BME280;5642;50.830;12.082;2022-08-23T14:49:32;99577.13;;;29.37;29.12
11172;BME280;5642;50.830;12.082;2022-08-23T14:51:58;99579.53;;;29.14;28.87
11172;BME280;5642;50.830;12.082;2022-08-23T14:54:25;99578.97;;;28.94;29.17
11172;BME280;5642;50.830;12.082;2022-08-23T14:56:51;99580.31;;;28.72;28.90
11172;BME280;5642;50.830;12.082;2022-08-23T14:59:17;99575.84;;;28.55;29.48
11172;BME280;5642;50.830;12.082;2022-08-23T15:01:45;99572.06;;;28.40;29.26
11172;BME280;5642;50.830;12.082;2022-08-23T15:04:16;99568.59;;;28.30;29.56
11172;BME280;5642;50.830;12.082;2022-08-23T15:06:43;99579.16;;;28.23;29.50
11172;BME280;5642;50.830;12.082;2022-08-23T15:09:10;99577.09;;;28.17;29.54
11172;BME280;5642;50.830;12.082;2022-08-23T15:11:36;99571.84;;;28.16;29.77
11172;BME280;5642;50.830;12.082;2022-08-23T15:14:02;99575.41;;;28.16;29.86
11172;BME280;5642;50.830;12.082;2022-08-23T15:16:28;99575.53;;;28.15;29.87
11172;BME280;5642;50.830;12.082;2022-08-23T15:18:55;99571.59;;;28.09;29.95
11172;BME280;5642;50.830;12.082;2022-08-23T15:21:22;99563.53;;;28.09;30.00
11172;BME280;5642;50.830;12.082;2022-08-23T15:23:48;99565.53;;;28.07;29.95
11172;BME280;5642;50.830;12.082;2022-08-23T15:26:18;99559.13;;;28.08;29.96
11172;BME280;5642;50.830;12.082;2022-08-23T15:28:45;99557.44;;;28.07;30.07
11172;BME280;5642;50.830;12.082;2022-08-23T15:31:15;99552.91;;;28.08;30.16
11172;BME280;5642;50.830;12.082;2022-08-23T15:33:43;99549.22;;;28.09;30.17
11172;BME280;5642;50.830;12.082;2022-08-23T15:36:10;99558.63;;;28.04;29.89
11172;BME280;5642;50.830;12.082;2022-08-23T15:38:38;99554.84;;;27.97;29.89
11172;BME280;5642;50.830;12.082;2022-08-23T15:41:05;99544.00;;;27.89;30.26
11172;BME280;5642;50.830;12.082;2022-08-23T15:43:31;99538.41;;;27.83;30.15
11172;BME280;5642;50.830;12.082;2022-08-23T15:46:02;99547.00;;;27.86;30.14
11172;BME280;5642;50.830;12.082;2022-08-23T15:48:33;99544.94;;;27.80;30.26
11172;BME280;5642;50.830;12.082;2022-08-23T15:51:00;99544.72;;;27.74;30.23
11172;BME280;5642;50.830;12.082;2022-08-23T15:53:28;99550.25;;;27.72;30.18
11172;BME280;5642;50.830;12.082;2022-08-23T15:55:55;99540.78;;;27.68;30.10
11172;BME280;5642;50.830;12.082;2022-08-23T15:58:24;99537.97;;;27.70;30.40
11172;BME280;5642;50.830;12.082;2022-08-23T22:42:51;99774.06;;;19.37;38.33
11172;BME280;5642;50.830;12.082;2022-08-23T22:45:18;99767.22;;;19.33;38.49
11172;BME280;5642;50.830;12.082;2022-08-23T22:47:44;99762.97;;;19.30;38.61
11172;BME280;5642;50.830;12.082;2022-08-23T22:50:10;99770.63;;;19.35;38.62
11172;BME280;5642;50.830;12.082;2022-08-23T22:52:37;99766.47;;;19.31;38.57
11172;BME280;5642;50.830;12.082;2022-08-23T22:55:04;99757.25;;;19.22;38.80
11172;BME280;5642;50.830;12.082;2022-08-23T22:57:30;99772.03;;;19.26;38.61
11172;BME280;5642;50.830;12.082;2022-08-23T22:59:56;99761.72;;;19.22;38.88
11172;BME280;5642;50.830;12.082;2022-08-23T23:02:23;99763.34;;;19.24;38.93
11172;BME280;5642;50.830;12.082;2022-08-23T23:04:48;99755.38;;;19.24;38.96
11172;BME280;5642;50.830;12.082;2022-08-23T23:07:14;99765.06;;;19.25;38.96
11172;BME280;5642;50.830;12.082;2022-08-23T23:10:00;99752.03;;;19.21;39.10
11172;BME280;5642;50.830;12.082;2022-08-23T23:12:26;99758.28;;;19.20;39.12
11172;BME280;5642;50.830;12.082;2022-08-23T23:14:54;99720.63;;;18.99;39.29
